Terminal Aerodrome Forecast
Issued by NWS Charleston, WV

Current Version | Previous Version | Graphics & Text | Print | Product List | Glossary On
Versions: 1 2 3 4 5 6 7 8 9 10 11 12 13 14 15 16 17 18 19 20 21 22 23 24 25 26 27 28 29 30 31 32
000
FTUS41 KRLX 200200 AAA
TAFHTS
TAF AMD
KHTS 200205Z 2002/2024 14002KT P6SM SCT030 BKN040
     FM200600 00000KT 5SM BR SCT025 BKN030
      TEMPO 2006/2008 2SM BR BKN020
     FM200800 00000KT 2SM BR SCT001 BKN012
     FM201200 12002KT 3SM BR BKN020
     FM201300 15003KT 5SM BR BKN025
     FM201700 19004KT P6SM BKN040
     FM202300 00000KT P6SM BKN045=

USA.gov is the U.S. government's official web portal to all federal, state and local government web resources and services.